createdAt,value
2019-04-25T00:03:49.183Z,101167.56
2019-04-25T00:08:54.706Z,101173.17
2019-04-25T00:14:01.585Z,101168.30
2019-04-25T00:19:08.371Z,101169.08
2019-04-25T00:24:32.081Z,101169.05
2019-04-25T00:29:37.571Z,101160.25
2019-04-25T00:34:44.328Z,101165.48
2019-04-25T00:39:51.606Z,101157.58
2019-04-25T00:44:57.064Z,101158.78
2019-04-25T00:50:02.472Z,101154.31
2019-04-25T00:55:07.628Z,101154.31
2019-04-25T01:00:32.760Z,101160.00
2019-04-25T01:05:38.086Z,101163.53
2019-04-25T01:10:44.289Z,101162.67
2019-04-25T01:15:49.508Z,101164.37
2019-04-25T01:20:55.477Z,101151.97
2019-04-25T01:26:03.222Z,101163.23
2019-04-25T01:31:11.037Z,101159.99
2019-04-25T01:36:18.111Z,101155.64
2019-04-25T01:41:24.881Z,101155.59
2019-04-25T01:46:31.771Z,101154.69
2019-04-25T01:51:38.161Z,101153.24
2019-04-25T01:56:44.298Z,101151.09
2019-04-25T02:01:50.943Z,101146.13
2019-04-25T02:06:57.040Z,101140.88
2019-04-25T02:12:15.961Z,101146.00
2019-04-25T02:17:21.425Z,101144.06
2019-04-25T02:22:26.666Z,101138.31
2019-04-25T02:27:31.995Z,101136.08
2019-04-25T02:32:37.428Z,101139.06
2019-04-25T02:37:45.084Z,101134.02
2019-04-25T02:42:50.053Z,101140.23
2019-04-25T02:48:14.198Z,101141.05
2019-04-25T02:53:34.423Z,101136.64
2019-04-25T02:58:40.236Z,101141.87
2019-04-25T03:03:45.339Z,101131.23
2019-04-25T03:08:50.913Z,101127.71
2019-04-25T03:13:57.772Z,101130.80
2019-04-25T03:19:13.996Z,101136.86
2019-04-25T03:24:18.857Z,101143.95
2019-04-25T03:29:24.768Z,101133.67
2019-04-25T03:34:30.117Z,101138.84
2019-04-25T03:39:35.507Z,101142.90
2019-04-25T03:44:40.743Z,101144.36
2019-04-25T03:49:45.936Z,101135.22
2019-04-25T03:54:51.053Z,101141.97
2019-04-25T03:59:56.194Z,101149.78
2019-04-25T04:05:01.441Z,101145.77
2019-04-25T04:10:08.045Z,101148.61
2019-04-25T04:15:14.943Z,101137.95
2019-04-25T04:20:28.140Z,101150.25
2019-04-25T04:25:33.687Z,101151.87
2019-04-25T04:30:38.926Z,101141.30
2019-04-25T04:35:44.286Z,101139.17
2019-04-25T04:40:49.409Z,101145.82
2019-04-25T04:45:54.571Z,101149.78
2019-04-25T04:50:59.691Z,101149.93
2019-04-25T04:56:05.223Z,101151.00
2019-04-25T05:01:11.107Z,101143.53
2019-04-25T05:06:24.872Z,101149.27
2019-04-25T05:11:30.504Z,101148.53
2019-04-25T05:16:36.201Z,101153.59
2019-04-25T05:21:41.362Z,101160.50
2019-04-25T05:26:46.571Z,101156.20
2019-04-25T05:31:54.268Z,101165.05
2019-04-25T05:36:59.634Z,101155.39
2019-04-25T05:42:09.458Z,101147.81
2019-04-25T05:47:15.906Z,101129.66
2019-04-25T05:52:21.971Z,101138.02
2019-04-25T05:57:27.171Z,101134.85
2019-04-25T06:02:34.030Z,101122.20
2019-04-25T06:07:39.298Z,101110.53
2019-04-25T06:13:04.764Z,101118.41
2019-04-25T06:18:27.773Z,101124.25
2019-04-25T06:23:50.563Z,101118.56
2019-04-25T06:28:59.486Z,101119.97
2019-04-25T06:34:04.542Z,101134.54
2019-04-25T06:39:10.450Z,101132.88
2019-04-25T06:44:17.341Z,101120.02
2019-04-25T06:49:27.765Z,101135.63
2019-04-25T06:54:33.563Z,101134.31
2019-04-25T06:59:41.569Z,101135.31
2019-04-25T07:04:47.378Z,101127.54
2019-04-25T07:09:53.495Z,101124.13
2019-04-25T07:14:58.813Z,101125.00
2019-04-25T07:20:07.270Z,101122.88
2019-04-25T07:25:16.316Z,101141.41
2019-04-25T07:30:31.233Z,101129.16
2019-04-25T07:35:31.228Z,101123.91
2019-04-25T07:40:36.500Z,101122.59
2019-04-25T07:45:43.475Z,101125.23
2019-04-25T07:50:49.681Z,101119.48
2019-04-25T07:55:55.404Z,101106.30
2019-04-25T08:01:00.685Z,101114.17
2019-04-25T08:06:06.255Z,101103.48
2019-04-25T08:11:14.032Z,101102.99
2019-04-25T08:16:21.355Z,101103.85
2019-04-25T08:21:26.587Z,101098.45
2019-04-25T08:26:34.964Z,101101.88
2019-04-25T08:31:39.679Z,101115.50
2019-04-25T08:36:45.782Z,101105.72
2019-04-25T08:41:51.140Z,101107.27
2019-04-25T08:46:56.439Z,101095.73
2019-04-25T08:52:04.100Z,101102.78
2019-04-25T08:57:15.084Z,101101.28
2019-04-25T09:02:32.389Z,101102.26
2019-04-25T09:07:39.036Z,101105.07
2019-04-25T09:12:45.870Z,101110.86
2019-04-25T09:17:51.302Z,101104.20
2019-04-25T09:22:57.616Z,101113.88
2019-04-25T09:28:04.399Z,101103.86
2019-04-25T09:33:09.737Z,101109.79
2019-04-25T09:38:15.051Z,101102.88
2019-04-25T09:43:20.204Z,101107.92
2019-04-25T09:48:46.888Z,101107.03
2019-04-25T09:53:54.159Z,101111.38
2019-04-25T09:59:01.417Z,101129.31
2019-04-25T10:04:07.186Z,101132.16
2019-04-25T10:09:13.542Z,101107.22
2019-04-25T10:14:34.192Z,101107.45
2019-04-25T10:19:40.043Z,101108.59
2019-04-25T10:24:58.431Z,101106.08
2019-04-25T10:29:56.922Z,101093.64
2019-04-25T10:35:00.322Z,101097.85
2019-04-25T10:40:08.700Z,101102.55
2019-04-25T10:45:23.333Z,101090.98
2019-04-25T10:50:23.843Z,101086.69
2019-04-25T10:55:29.279Z,101095.82
2019-04-25T11:00:39.815Z,101082.95
2019-04-25T11:05:46.136Z,101088.16
2019-04-25T11:10:53.785Z,101080.20
2019-04-25T11:15:59.400Z,101077.94
2019-04-25T11:21:06.027Z,101074.91
2019-04-25T11:26:11.749Z,101073.64
2019-04-25T11:31:18.591Z,101068.65
2019-04-25T11:36:24.988Z,101067.56
2019-04-25T11:41:30.386Z,101066.86
2019-04-25T11:46:35.551Z,101057.31
2019-04-25T11:51:41.802Z,101057.05
2019-04-25T11:56:48.615Z,101071.94
2019-04-25T12:01:57.327Z,101060.02
2019-04-25T12:07:03.917Z,101063.00
2019-04-25T12:12:08.945Z,101066.28
2019-04-25T12:17:14.377Z,101069.23
2019-04-25T12:22:19.809Z,101060.11
2019-04-25T12:27:26.338Z,101061.84
2019-04-25T12:32:31.643Z,101073.52
2019-04-25T12:37:36.924Z,101080.38
2019-04-25T12:42:42.404Z,101083.89
2019-04-25T12:47:49.079Z,101082.15
2019-04-25T12:52:55.057Z,101063.59
2019-04-25T12:58:01.221Z,101079.70
2019-04-25T13:03:07.074Z,101069.32
2019-04-25T13:08:14.190Z,101062.89
2019-04-25T13:13:20.097Z,101077.14
2019-04-25T13:18:25.206Z,101073.72
2019-04-25T13:23:31.944Z,101063.64
2019-04-25T13:28:38.956Z,101065.13
2019-04-25T13:33:45.652Z,101058.04
2019-04-25T13:38:50.974Z,101068.63
2019-04-25T13:43:57.742Z,101065.30
2019-04-25T13:49:04.300Z,101069.58
2019-04-25T13:54:10.319Z,101073.50
2019-04-25T13:59:15.734Z,101077.15
2019-04-25T14:04:22.294Z,101064.92
2019-04-25T14:09:29.214Z,101067.03
2019-04-25T14:14:36.088Z,101064.01
2019-04-25T14:19:44.269Z,101063.55
2019-04-25T14:24:49.950Z,101060.34
2019-04-25T14:29:56.169Z,101070.27
2019-04-25T14:35:01.362Z,101061.47
2019-04-25T14:40:06.967Z,101063.02
2019-04-25T14:45:12.476Z,101056.48
2019-04-25T14:50:17.687Z,101064.14
2019-04-25T14:55:42.572Z,101059.48
2019-04-25T15:00:49.601Z,101059.17
2019-04-25T15:05:54.900Z,101060.91
2019-04-25T15:11:00.140Z,101063.50
2019-04-25T15:16:05.344Z,101055.48
2019-04-25T15:21:10.658Z,101065.71
2019-04-25T15:26:15.923Z,101060.14
2019-04-25T15:31:21.349Z,101063.78
2019-04-25T15:36:31.301Z,101065.59
2019-04-25T15:41:44.434Z,101072.16
2019-04-25T15:46:51.190Z,101073.34
2019-04-25T15:51:56.447Z,101064.66
2019-04-25T15:57:01.643Z,101063.35
2019-04-25T16:02:08.777Z,101063.22
2019-04-25T16:07:14.200Z,101073.30
2019-04-25T16:12:19.603Z,101072.41
2019-04-25T16:17:27.096Z,101060.44
2019-04-25T16:22:32.449Z,101068.71
2019-04-25T16:27:37.715Z,101067.44
2019-04-25T16:32:43.059Z,101071.52
2019-04-25T16:37:48.314Z,101063.43
2019-04-25T16:42:53.647Z,101074.01
2019-04-25T16:47:59.028Z,101063.94
2019-04-25T16:53:04.945Z,101073.53
2019-04-25T16:58:10.432Z,101078.73
2019-04-25T17:03:17.138Z,101075.35
2019-04-25T17:08:22.648Z,101077.17
2019-04-25T17:13:30.745Z,101078.90
2019-04-25T17:18:47.073Z,101076.05
2019-04-25T17:23:52.298Z,101072.73
2019-04-25T17:28:59.317Z,101079.44
2019-04-25T17:34:19.682Z,101081.41
2019-04-25T17:39:26.590Z,101088.80
2019-04-25T17:44:32.793Z,101099.58
2019-04-25T17:49:38.167Z,101106.45
2019-04-25T17:54:43.428Z,101101.70
2019-04-25T17:59:48.599Z,101105.50
2019-04-25T18:04:54.017Z,101117.38
2019-04-25T18:09:59.147Z,101113.09
2019-04-25T18:15:07.727Z,101118.94
2019-04-25T18:20:16.106Z,101130.59
2019-04-25T18:25:38.923Z,101127.88
2019-04-25T18:30:45.533Z,101136.84
2019-04-25T18:35:55.460Z,101139.27
2019-04-25T18:41:05.202Z,101144.16
2019-04-25T18:46:12.044Z,101149.26
2019-04-25T18:51:17.436Z,101148.44
2019-04-25T18:56:27.533Z,101147.33
2019-04-25T19:01:43.813Z,101149.97
2019-04-25T19:06:55.994Z,101143.86
2019-04-25T19:11:56.015Z,101148.30
2019-04-25T19:17:01.357Z,101152.82
2019-04-25T19:22:06.813Z,101161.25
2019-04-25T19:27:23.177Z,101160.08
2019-04-25T19:32:19.012Z,101156.64
2019-04-25T19:37:24.579Z,101155.86
2019-04-25T19:42:31.777Z,101154.09
2019-04-25T19:47:37.097Z,101155.05
2019-04-25T19:52:43.732Z,101159.08
2019-04-25T19:57:50.306Z,101170.17
2019-04-25T20:03:06.495Z,101166.72
2019-04-25T20:08:29.817Z,101168.55
2019-04-25T20:13:35.316Z,101164.62
2019-04-25T20:18:40.609Z,101158.56
2019-04-25T20:23:46.470Z,101163.41
2019-04-25T20:28:51.962Z,101159.46
2019-04-25T20:34:05.248Z,101162.17
2019-04-25T20:39:07.187Z,101160.80
2019-04-25T20:44:15.009Z,101146.32
2019-04-25T20:49:20.187Z,101152.03
2019-04-25T20:54:25.825Z,101149.45
2019-04-25T20:59:31.454Z,101147.69
2019-04-25T21:04:40.231Z,101153.41
2019-04-25T21:09:45.410Z,101149.44
2019-04-25T21:15:00.450Z,101147.66
2019-04-25T21:20:10.888Z,101150.30
2019-04-25T21:25:17.372Z,101147.66
2019-04-25T21:30:22.689Z,101149.88
2019-04-25T21:35:27.957Z,101152.94
2019-04-25T21:40:44.367Z,101149.41
2019-04-25T21:45:51.894Z,101153.80
2019-04-25T21:50:59.726Z,101155.55
2019-04-25T21:56:04.959Z,101158.63
2019-04-25T22:01:11.729Z,101153.34
2019-04-25T22:06:17.881Z,101147.14
2019-04-25T22:11:23.295Z,101147.56
2019-04-25T22:16:29.023Z,101145.27
2019-04-25T22:21:38.277Z,101138.23
2019-04-25T22:26:41.892Z,101138.20
2019-04-25T22:31:49.357Z,101140.42
2019-04-25T22:36:54.563Z,101135.58
2019-04-25T22:42:00.937Z,101139.52
2019-04-25T22:47:08.332Z,101130.73
2019-04-25T22:52:13.587Z,101139.04
2019-04-25T22:57:18.851Z,101131.55
2019-04-25T23:02:37.924Z,101130.14
2019-04-25T23:07:43.118Z,101126.67
2019-04-25T23:12:48.943Z,101131.06
2019-04-25T23:17:54.160Z,101122.18
2019-04-25T23:22:59.455Z,101122.24
2019-04-25T23:28:12.456Z,101125.27
2019-04-25T23:33:18.154Z,101127.45
2019-04-25T23:38:23.724Z,101121.72
2019-04-25T23:43:29.120Z,101122.54
2019-04-25T23:48:34.276Z,101115.03
2019-04-25T23:53:39.595Z,101120.30
2019-04-25T23:58:44.925Z,101116.78
